sensor_id;sensor_type;location;lat;lon;timestamp;pressure;altitude;pressure_sealevel;temperature
78369;BMP280;71113;43.092;-89.268;2023-08-31T00:01:49;98388.66;;;21.34
78369;BMP280;71113;43.092;-89.268;2023-08-31T00:04:15;98382.69;;;21.37
78369;BMP280;71113;43.092;-89.268;2023-08-31T00:06:41;98373.72;;;21.42
78369;BMP280;71113;43.092;-89.268;2023-08-31T00:09:10;98378.81;;;21.47
78369;BMP280;71113;43.092;-89.268;2023-08-31T00:11:37;98378.25;;;21.53
78369;BMP280;71113;43.092;-89.268;2023-08-31T00:14:03;98377.94;;;21.55
78369;BMP280;71113;43.092;-89.268;2023-08-31T00:16:29;98373.50;;;21.59
78369;BMP280;71113;43.092;-89.268;2023-08-31T00:18:59;98372.38;;;21.60
78369;BMP280;71113;43.092;-89.268;2023-08-31T00:21:25;98372.63;;;21.55
78369;BMP280;71113;43.092;-89.268;2023-08-31T00:23:51;98372.63;;;21.55
78369;BMP280;71113;43.092;-89.268;2023-08-31T00:26:17;98377.94;;;21.55
78369;BMP280;71113;43.092;-89.268;2023-08-31T00:28:43;98378.94;;;21.50
78369;BMP280;71113;43.092;-89.268;2023-08-31T00:31:10;98369.41;;;21.49
78369;BMP280;71113;43.092;-89.268;2023-08-31T00:33:38;98369.88;;;21.51
78369;BMP280;71113;43.092;-89.268;2023-08-31T00:36:04;98371.06;;;21.54
78369;BMP280;71113;43.092;-89.268;2023-08-31T00:38:31;98373.28;;;21.52
78369;BMP280;71113;43.092;-89.268;2023-08-31T00:40:57;98364.09;;;21.49
78369;BMP280;71113;43.092;-89.268;2023-08-31T00:43:23;98364.00;;;21.46
78369;BMP280;71113;43.092;-89.268;2023-08-31T00:45:51;98365.00;;;21.41
78369;BMP280;71113;43.092;-89.268;2023-08-31T00:48:25;98369.88;;;21.39
78369;BMP280;71113;43.092;-89.268;2023-08-31T00:51:01;98367.53;;;21.37
78369;BMP280;71113;43.092;-89.268;2023-08-31T00:53:29;98377.28;;;21.33
78369;BMP280;71113;43.092;-89.268;2023-08-31T00:55:56;98375.03;;;21.35
78369;BMP280;71113;43.092;-89.268;2023-08-31T00:58:22;98376.50;;;21.33
78369;BMP280;71113;43.092;-89.268;2023-08-31T01:04:12;98380.22;;;21.32
78369;BMP280;71113;43.092;-89.268;2023-08-31T01:09:42;98388.28;;;21.23
78369;BMP280;71113;43.092;-89.268;2023-08-31T01:12:12;98392.84;;;21.23
78369;BMP280;71113;43.092;-89.268;2023-08-31T01:14:48;98391.59;;;21.20
78369;BMP280;71113;43.092;-89.268;2023-08-31T01:17:17;98407.44;;;21.17
78369;BMP280;71113;43.092;-89.268;2023-08-31T01:22:39;98397.47;;;21.01
78369;BMP280;71113;43.092;-89.268;2023-08-31T01:25:09;98397.34;;;20.86
78369;BMP280;71113;43.092;-89.268;2023-08-31T01:27:36;98399.03;;;20.82
78369;BMP280;71113;43.092;-89.268;2023-08-31T01:30:04;98401.50;;;20.87
78369;BMP280;71113;43.092;-89.268;2023-08-31T01:32:34;98400.31;;;20.96
78369;BMP280;71113;43.092;-89.268;2023-08-31T01:35:03;98395.13;;;21.00
78369;BMP280;71113;43.092;-89.268;2023-08-31T01:37:45;98398.44;;;20.97
78369;BMP280;71113;43.092;-89.268;2023-08-31T01:43:17;98411.50;;;20.90
78369;BMP280;71113;43.092;-89.268;2023-08-31T01:45:45;98412.88;;;20.87
78369;BMP280;71113;43.092;-89.268;2023-08-31T01:48:14;98412.13;;;20.87
78369;BMP280;71113;43.092;-89.268;2023-08-31T01:50:41;98416.63;;;20.86
78369;BMP280;71113;43.092;-89.268;2023-08-31T01:53:07;98418.72;;;20.81
78369;BMP280;71113;43.092;-89.268;2023-08-31T01:55:34;98423.59;;;20.79
78369;BMP280;71113;43.092;-89.268;2023-08-31T01:58:03;98418.28;;;20.79
78369;BMP280;71113;43.092;-89.268;2023-08-31T02:00:31;98421.06;;;20.82
78369;BMP280;71113;43.092;-89.268;2023-08-31T02:03:01;98416.06;;;20.81
78369;BMP280;71113;43.092;-89.268;2023-08-31T02:05:27;98430.81;;;20.69
78369;BMP280;71113;43.092;-89.268;2023-08-31T02:07:55;98434.03;;;20.63
78369;BMP280;71113;43.092;-89.268;2023-08-31T02:10:21;98425.81;;;20.56
78369;BMP280;71113;43.092;-89.268;2023-08-31T02:12:48;98437.03;;;20.53
78369;BMP280;71113;43.092;-89.268;2023-08-31T02:15:16;98430.06;;;20.48
78369;BMP280;71113;43.092;-89.268;2023-08-31T02:17:42;98428.84;;;20.46
78369;BMP280;71113;43.092;-89.268;2023-08-31T02:20:09;98440.09;;;20.42
78369;BMP280;71113;43.092;-89.268;2023-08-31T02:22:35;98439.97;;;20.39
78369;BMP280;71113;43.092;-89.268;2023-08-31T02:25:02;98437.50;;;20.34
78369;BMP280;71113;43.092;-89.268;2023-08-31T02:27:29;98442.22;;;20.28
78369;BMP280;71113;43.092;-89.268;2023-08-31T02:29:57;98431.25;;;20.38
78369;BMP280;71113;43.092;-89.268;2023-08-31T02:32:24;98438.22;;;20.43
78369;BMP280;71113;43.092;-89.268;2023-08-31T02:34:50;98438.28;;;20.34
78369;BMP280;71113;43.092;-89.268;2023-08-31T02:37:16;98436.31;;;20.23
78369;BMP280;71113;43.092;-89.268;2023-08-31T02:39:42;98439.94;;;20.18
78369;BMP280;71113;43.092;-89.268;2023-08-31T02:42:09;98437.50;;;20.13
78369;BMP280;71113;43.092;-89.268;2023-08-31T02:44:35;98447.97;;;20.09
78369;BMP280;71113;43.092;-89.268;2023-08-31T02:47:01;98445.59;;;20.08
78369;BMP280;71113;43.092;-89.268;2023-08-31T02:49:27;98445.16;;;20.06
78369;BMP280;71113;43.092;-89.268;2023-08-31T02:51:53;98452.50;;;20.00
78369;BMP280;71113;43.092;-89.268;2023-08-31T02:54:19;98449.88;;;20.00
78369;BMP280;71113;43.092;-89.268;2023-08-31T02:56:45;98455.00;;;19.97
78369;BMP280;71113;43.092;-89.268;2023-08-31T02:59:11;98454.22;;;20.05
78369;BMP280;71113;43.092;-89.268;2023-08-31T03:01:37;98451.81;;;20.12
78369;BMP280;71113;43.092;-89.268;2023-08-31T03:04:04;98452.84;;;19.99
78369;BMP280;71113;43.092;-89.268;2023-08-31T03:06:33;98449.75;;;19.88
78369;BMP280;71113;43.092;-89.268;2023-08-31T03:08:59;98442.94;;;19.87
78369;BMP280;71113;43.092;-89.268;2023-08-31T03:11:27;98444.50;;;19.79
78369;BMP280;71113;43.092;-89.268;2023-08-31T03:13:52;98447.59;;;19.81
78369;BMP280;71113;43.092;-89.268;2023-08-31T03:16:18;98454.63;;;19.77
78369;BMP280;71113;43.092;-89.268;2023-08-31T03:18:44;98449.38;;;19.69
78369;BMP280;71113;43.092;-89.268;2023-08-31T03:21:10;98453.91;;;19.68
78369;BMP280;71113;43.092;-89.268;2023-08-31T03:23:36;98454.38;;;19.62
78369;BMP280;71113;43.092;-89.268;2023-08-31T03:26:18;98455.16;;;19.62
78369;BMP280;71113;43.092;-89.268;2023-08-31T03:28:44;98462.47;;;19.65
78369;BMP280;71113;43.092;-89.268;2023-08-31T03:31:10;98459.03;;;19.73
78369;BMP280;71113;43.092;-89.268;2023-08-31T03:33:36;98461.38;;;19.66
78369;BMP280;71113;43.092;-89.268;2023-08-31T03:36:03;98464.81;;;19.58
78369;BMP280;71113;43.092;-89.268;2023-08-31T03:38:32;98459.91;;;19.48
78369;BMP280;71113;43.092;-89.268;2023-08-31T03:41:03;98469.72;;;19.47
78369;BMP280;71113;43.092;-89.268;2023-08-31T03:43:29;98458.50;;;19.42
78369;BMP280;71113;43.092;-89.268;2023-08-31T03:45:56;98466.59;;;19.45
78369;BMP280;71113;43.092;-89.268;2023-08-31T03:48:23;98461.94;;;19.42
78369;BMP280;71113;43.092;-89.268;2023-08-31T03:50:52;98465.50;;;19.38
78369;BMP280;71113;43.092;-89.268;2023-08-31T03:53:18;98459.31;;;19.34
78369;BMP280;71113;43.092;-89.268;2023-08-31T03:55:44;98466.13;;;19.35
78369;BMP280;71113;43.092;-89.268;2023-08-31T03:58:10;98465.69;;;19.33
78369;BMP280;71113;43.092;-89.268;2023-08-31T04:00:38;98469.53;;;19.44
78369;BMP280;71113;43.092;-89.268;2023-08-31T04:03:04;98470.94;;;19.41
78369;BMP280;71113;43.092;-89.268;2023-08-31T04:05:34;98468.19;;;19.29
78369;BMP280;71113;43.092;-89.268;2023-08-31T04:08:01;98467.09;;;19.22
78369;BMP280;71113;43.092;-89.268;2023-08-31T04:10:30;98472.06;;;19.23
78369;BMP280;71113;43.092;-89.268;2023-08-31T04:12:58;98476.75;;;19.17
78369;BMP280;71113;43.092;-89.268;2023-08-31T04:15:24;98473.19;;;19.13
78369;BMP280;71113;43.092;-89.268;2023-08-31T04:17:50;98474.72;;;19.14
78369;BMP280;71113;43.092;-89.268;2023-08-31T04:20:16;98476.78;;;19.09
78369;BMP280;71113;43.092;-89.268;2023-08-31T04:22:41;98480.81;;;19.06
78369;BMP280;71113;43.092;-89.268;2023-08-31T04:25:08;98479.72;;;19.07
78369;BMP280;71113;43.092;-89.268;2023-08-31T04:27:33;98483.28;;;19.11
78369;BMP280;71113;43.092;-89.268;2023-08-31T04:30:02;98483.16;;;19.16
78369;BMP280;71113;43.092;-89.268;2023-08-31T04:32:28;98477.88;;;19.16
78369;BMP280;71113;43.092;-89.268;2023-08-31T04:34:55;98479.88;;;19.02
78369;BMP280;71113;43.092;-89.268;2023-08-31T04:37:23;98476.31;;;18.98
78369;BMP280;71113;43.092;-89.268;2023-08-31T04:39:49;98482.38;;;18.90
78369;BMP280;71113;43.092;-89.268;2023-08-31T04:42:15;98478.03;;;18.85
78369;BMP280;71113;43.092;-89.268;2023-08-31T04:44:44;98491.09;;;18.82
78369;BMP280;71113;43.092;-89.268;2023-08-31T04:47:11;98494.19;;;18.84
78369;BMP280;71113;43.092;-89.268;2023-08-31T04:49:36;98490.00;;;18.83
78369;BMP280;71113;43.092;-89.268;2023-08-31T04:52:03;98491.09;;;18.82
78369;BMP280;71113;43.092;-89.268;2023-08-31T04:54:29;98493.84;;;18.77
78369;BMP280;71113;43.092;-89.268;2023-08-31T04:56:54;98486.59;;;18.74
78369;BMP280;71113;43.092;-89.268;2023-08-31T04:59:20;98481.28;;;18.82
78369;BMP280;71113;43.092;-89.268;2023-08-31T05:01:46;98480.50;;;18.91
78369;BMP280;71113;43.092;-89.268;2023-08-31T05:04:12;98485.66;;;18.78
78369;BMP280;71113;43.092;-89.268;2023-08-31T05:06:38;98483.44;;;18.72
78369;BMP280;71113;43.092;-89.268;2023-08-31T05:09:04;98486.25;;;18.67
78369;BMP280;71113;43.092;-89.268;2023-08-31T05:11:31;98489.97;;;18.66
78369;BMP280;71113;43.092;-89.268;2023-08-31T05:13:57;98483.72;;;18.62
78369;BMP280;71113;43.092;-89.268;2023-08-31T05:16:23;98483.91;;;18.56
78369;BMP280;71113;43.092;-89.268;2023-08-31T05:18:49;98480.00;;;18.54
78369;BMP280;71113;43.092;-89.268;2023-08-31T05:21:15;98484.66;;;18.48
78369;BMP280;71113;43.092;-89.268;2023-08-31T05:23:41;98480.50;;;18.47
78369;BMP280;71113;43.092;-89.268;2023-08-31T05:26:08;98489.94;;;18.40
78369;BMP280;71113;43.092;-89.268;2023-08-31T05:28:33;98481.22;;;18.48
78369;BMP280;71113;43.092;-89.268;2023-08-31T05:31:00;98494.47;;;18.56
78369;BMP280;71113;43.092;-89.268;2023-08-31T05:33:26;98492.28;;;18.50
78369;BMP280;71113;43.092;-89.268;2023-08-31T05:35:55;98498.31;;;18.42
78369;BMP280;71113;43.092;-89.268;2023-08-31T05:38:21;98500.75;;;18.30
78369;BMP280;71113;43.092;-89.268;2023-08-31T05:40:47;98502.63;;;18.29
78369;BMP280;71113;43.092;-89.268;2023-08-31T05:43:13;98505.25;;;18.29
78369;BMP280;71113;43.092;-89.268;2023-08-31T05:45:39;98506.03;;;18.21
78369;BMP280;71113;43.092;-89.268;2023-08-31T05:48:05;98505.69;;;18.14
78369;BMP280;71113;43.092;-89.268;2023-08-31T05:50:31;98510.06;;;18.18
78369;BMP280;71113;43.092;-89.268;2023-08-31T05:52:57;98505.50;;;18.10
78369;BMP280;71113;43.092;-89.268;2023-08-31T05:55:23;98494.50;;;18.08
78369;BMP280;71113;43.092;-89.268;2023-08-31T05:57:49;98497.44;;;18.07
78369;BMP280;71113;43.092;-89.268;2023-08-31T06:00:17;98492.03;;;18.20
78369;BMP280;71113;43.092;-89.268;2023-08-31T06:02:43;98501.84;;;18.20
78369;BMP280;71113;43.092;-89.268;2023-08-31T06:05:10;98505.50;;;18.10
78369;BMP280;71113;43.092;-89.268;2023-08-31T06:07:42;98503.94;;;18.01
78369;BMP280;71113;43.092;-89.268;2023-08-31T06:10:09;98501.41;;;17.95
78369;BMP280;71113;43.092;-89.268;2023-08-31T06:12:35;98498.91;;;17.90
78369;BMP280;71113;43.092;-89.268;2023-08-31T06:15:02;98495.00;;;17.88
78369;BMP280;71113;43.092;-89.268;2023-08-31T06:17:28;98499.03;;;17.85
78369;BMP280;71113;43.092;-89.268;2023-08-31T06:19:54;98490.50;;;17.80
78369;BMP280;71113;43.092;-89.268;2023-08-31T06:22:20;98493.69;;;17.77
78369;BMP280;71113;43.092;-89.268;2023-08-31T06:24:48;98494.34;;;17.74
78369;BMP280;71113;43.092;-89.268;2023-08-31T06:27:14;98501.97;;;17.75
78369;BMP280;71113;43.092;-89.268;2023-08-31T06:29:42;98498.47;;;17.97
78369;BMP280;71113;43.092;-89.268;2023-08-31T06:32:08;98504.53;;;17.98
78369;BMP280;71113;43.092;-89.268;2023-08-31T06:34:34;98496.84;;;17.79
78369;BMP280;71113;43.092;-89.268;2023-08-31T06:37:00;98503.03;;;17.74
78369;BMP280;71113;43.092;-89.268;2023-08-31T06:39:26;98492.31;;;17.71
78369;BMP280;71113;43.092;-89.268;2023-08-31T06:41:52;98496.91;;;17.65
78369;BMP280;71113;43.092;-89.268;2023-08-31T06:44:18;98487.59;;;17.59
78369;BMP280;71113;43.092;-89.268;2023-08-31T06:46:44;98488.16;;;17.56
78369;BMP280;71113;43.092;-89.268;2023-08-31T06:49:10;98483.63;;;17.48
78369;BMP280;71113;43.092;-89.268;2023-08-31T06:51:36;98483.50;;;17.53
78369;BMP280;71113;43.092;-89.268;2023-08-31T06:54:02;98486.44;;;17.51
78369;BMP280;71113;43.092;-89.268;2023-08-31T06:56:34;98478.34;;;17.48
78369;BMP280;71113;43.092;-89.268;2023-08-31T06:59:01;98476.53;;;17.57
78369;BMP280;71113;43.092;-89.268;2023-08-31T07:01:31;98484.41;;;17.71
78369;BMP280;71113;43.092;-89.268;2023-08-31T07:03:58;98476.25;;;17.58
78369;BMP280;71113;43.092;-89.268;2023-08-31T07:06:24;98476.00;;;17.46
78369;BMP280;71113;43.092;-89.268;2023-08-31T07:08:50;98473.03;;;17.39
78369;BMP280;71113;43.092;-89.268;2023-08-31T07:11:36;98475.69;;;17.39
78369;BMP280;71113;43.092;-89.268;2023-08-31T07:14:02;98478.00;;;17.41
78369;BMP280;71113;43.092;-89.268;2023-08-31T07:16:28;98481.66;;;17.31
78369;BMP280;71113;43.092;-89.268;2023-08-31T07:18:54;98484.91;;;17.28
78369;BMP280;71113;43.092;-89.268;2023-08-31T07:21:20;98485.78;;;17.23
78369;BMP280;71113;43.092;-89.268;2023-08-31T07:23:46;98492.72;;;17.19
78369;BMP280;71113;43.092;-89.268;2023-08-31T07:26:12;98488.34;;;17.15
78369;BMP280;71113;43.092;-89.268;2023-08-31T07:28:38;98490.25;;;17.23
78369;BMP280;71113;43.092;-89.268;2023-08-31T07:31:05;98482.31;;;17.37
78369;BMP280;71113;43.092;-89.268;2023-08-31T07:33:32;98486.16;;;17.30
78369;BMP280;71113;43.092;-89.268;2023-08-31T07:35:59;98489.81;;;17.21
78369;BMP280;71113;43.092;-89.268;2023-08-31T07:38:25;98486.78;;;17.14
78369;BMP280;71113;43.092;-89.268;2023-08-31T07:40:52;98483.34;;;17.04
78369;BMP280;71113;43.092;-89.268;2023-08-31T07:43:18;98496.19;;;17.06
78369;BMP280;71113;43.092;-89.268;2023-08-31T07:45:44;98487.19;;;17.07
78369;BMP280;71113;43.092;-89.268;2023-08-31T07:48:30;98488.41;;;17.01
78369;BMP280;71113;43.092;-89.268;2023-08-31T07:50:56;98487.31;;;17.02
78369;BMP280;71113;43.092;-89.268;2023-08-31T07:53:22;98491.03;;;17.01
78369;BMP280;71113;43.092;-89.268;2023-08-31T07:55:54;98497.19;;;16.96
78369;BMP280;71113;43.092;-89.268;2023-08-31T07:58:24;98499.94;;;17.05
78369;BMP280;71113;43.092;-89.268;2023-08-31T08:00:55;98494.09;;;17.17
78369;BMP280;71113;43.092;-89.268;2023-08-31T08:03:22;98498.50;;;17.08
78369;BMP280;71113;43.092;-89.268;2023-08-31T08:05:48;98500.63;;;16.97
78369;BMP280;71113;43.092;-89.268;2023-08-31T08:08:14;98504.41;;;16.91
78369;BMP280;71113;43.092;-89.268;2023-08-31T08:10:40;98497.22;;;16.83
78369;BMP280;71113;43.092;-89.268;2023-08-31T08:13:06;98503.09;;;16.80
78369;BMP280;71113;43.092;-89.268;2023-08-31T08:15:32;98501.22;;;16.80
78369;BMP280;71113;43.092;-89.268;2023-08-31T08:17:58;98493.94;;;16.77
78369;BMP280;71113;43.092;-89.268;2023-08-31T08:20:24;98487.84;;;16.77
78369;BMP280;71113;43.092;-89.268;2023-08-31T08:22:51;98500.56;;;16.74
78369;BMP280;71113;43.092;-89.268;2023-08-31T08:25:20;98495.56;;;16.73
78369;BMP280;71113;43.092;-89.268;2023-08-31T08:27:46;98494.53;;;16.74
78369;BMP280;71113;43.092;-89.268;2023-08-31T08:30:13;98485.78;;;16.87
78369;BMP280;71113;43.092;-89.268;2023-08-31T08:32:41;98481.59;;;16.86
78369;BMP280;71113;43.092;-89.268;2023-08-31T08:35:07;98485.00;;;16.87
78369;BMP280;71113;43.092;-89.268;2023-08-31T08:37:34;98475.75;;;16.89
78369;BMP280;71113;43.092;-89.268;2023-08-31T08:40:00;98477.00;;;16.92
78369;BMP280;71113;43.092;-89.268;2023-08-31T08:42:29;98478.06;;;16.91
78369;BMP280;71113;43.092;-89.268;2023-08-31T08:45:01;98476.81;;;16.88
78369;BMP280;71113;43.092;-89.268;2023-08-31T08:47:27;98484.53;;;16.85
78369;BMP280;71113;43.092;-89.268;2023-08-31T08:49:54;98479.75;;;16.87
78369;BMP280;71113;43.092;-89.268;2023-08-31T08:52:21;98487.53;;;16.92
78369;BMP280;71113;43.092;-89.268;2023-08-31T08:54:49;98489.13;;;16.93
78369;BMP280;71113;43.092;-89.268;2023-08-31T08:57:16;98491.25;;;16.91
78369;BMP280;71113;43.092;-89.268;2023-08-31T08:59:42;98494.66;;;16.91
78369;BMP280;71113;43.092;-89.268;2023-08-31T09:02:10;98491.75;;;16.93
78369;BMP280;71113;43.092;-89.268;2023-08-31T09:04:36;98487.53;;;16.92
78369;BMP280;71113;43.092;-89.268;2023-08-31T09:07:04;98491.84;;;16.88
78369;BMP280;71113;43.092;-89.268;2023-08-31T09:09:30;98489.81;;;16.85
78369;BMP280;71113;43.092;-89.268;2023-08-31T09:11:56;98495.06;;;16.85
78369;BMP280;71113;43.092;-89.268;2023-08-31T09:14:22;98497.41;;;16.86
78369;BMP280;71113;43.092;-89.268;2023-08-31T09:16:50;98484.53;;;16.85
78369;BMP280;71113;43.092;-89.268;2023-08-31T09:19:23;98492.75;;;16.83
78369;BMP280;71113;43.092;-89.268;2023-08-31T09:21:51;98500.75;;;16.78
78369;BMP280;71113;43.092;-89.268;2023-08-31T09:24:18;98489.72;;;16.76
78369;BMP280;71113;43.092;-89.268;2023-08-31T09:26:45;98492.34;;;16.76
78369;BMP280;71113;43.092;-89.268;2023-08-31T09:29:14;98497.22;;;16.83
78369;BMP280;71113;43.092;-89.268;2023-08-31T09:31:46;98497.03;;;16.79
78369;BMP280;71113;43.092;-89.268;2023-08-31T09:34:14;98503.66;;;16.77
78369;BMP280;71113;43.092;-89.268;2023-08-31T09:36:41;98499.00;;;16.73
78369;BMP280;71113;43.092;-89.268;2023-08-31T09:39:08;98509.44;;;16.79
78369;BMP280;71113;43.092;-89.268;2023-08-31T09:41:35;98509.03;;;16.71
78369;BMP280;71113;43.092;-89.268;2023-08-31T09:44:18;98508.75;;;16.73
78369;BMP280;71113;43.092;-89.268;2023-08-31T09:46:45;98507.97;;;16.72
78369;BMP280;71113;43.092;-89.268;2023-08-31T09:49:13;98510.72;;;16.67
78369;BMP280;71113;43.092;-89.268;2023-08-31T09:51:44;98511.22;;;16.69
78369;BMP280;71113;43.092;-89.268;2023-08-31T09:54:13;98516.75;;;16.68
78369;BMP280;71113;43.092;-89.268;2023-08-31T09:56:41;98511.59;;;16.63
78369;BMP280;71113;43.092;-89.268;2023-08-31T09:59:09;98520.19;;;16.68
78369;BMP280;71113;43.092;-89.268;2023-08-31T10:01:35;98523.28;;;16.70
78369;BMP280;71113;43.092;-89.268;2023-08-31T10:04:23;98518.22;;;16.74
78369;BMP280;71113;43.092;-89.268;2023-08-31T10:06:49;98515.19;;;16.67
78369;BMP280;71113;43.092;-89.268;2023-08-31T10:09:16;98515.13;;;16.58
78369;BMP280;71113;43.092;-89.268;2023-08-31T10:11:42;98518.63;;;16.54
78369;BMP280;71113;43.092;-89.268;2023-08-31T10:14:10;98520.25;;;16.50
78369;BMP280;71113;43.092;-89.268;2023-08-31T10:16:39;98520.25;;;16.50
78369;BMP280;71113;43.092;-89.268;2023-08-31T10:19:05;98523.69;;;16.50
78369;BMP280;71113;43.092;-89.268;2023-08-31T10:21:32;98524.97;;;16.53
78369;BMP280;71113;43.092;-89.268;2023-08-31T10:23:59;98530.72;;;16.55
78369;BMP280;71113;43.092;-89.268;2023-08-31T10:26:27;98527.31;;;16.54
78369;BMP280;71113;43.092;-89.268;2023-08-31T10:28:53;98536.19;;;16.58
78369;BMP280;71113;43.092;-89.268;2023-08-31T10:31:20;98534.59;;;16.57
78369;BMP280;71113;43.092;-89.268;2023-08-31T10:34:00;98537.34;;;16.52
78369;BMP280;71113;43.092;-89.268;2023-08-31T10:36:44;98527.50;;;16.44
78369;BMP280;71113;43.092;-89.268;2023-08-31T10:39:18;98528.06;;;16.41
78369;BMP280;71113;43.092;-89.268;2023-08-31T10:41:56;98537.81;;;16.40
78369;BMP280;71113;43.092;-89.268;2023-08-31T10:44:24;98544.47;;;16.38
78369;BMP280;71113;43.092;-89.268;2023-08-31T10:46:51;98538.81;;;16.31
78369;BMP280;71113;43.092;-89.268;2023-08-31T10:49:20;98550.69;;;16.28
78369;BMP280;71113;43.092;-89.268;2023-08-31T10:51:57;98546.72;;;16.31
78369;BMP280;71113;43.092;-89.268;2023-08-31T10:54:31;98546.19;;;16.29
78369;BMP280;71113;43.092;-89.268;2023-08-31T10:59:49;98555.47;;;16.40
78369;BMP280;71113;43.092;-89.268;2023-08-31T11:07:44;98559.25;;;16.34
78369;BMP280;71113;43.092;-89.268;2023-08-31T11:13:01;98566.88;;;16.35
78369;BMP280;71113;43.092;-89.268;2023-08-31T11:15:28;98570.09;;;16.32
78369;BMP280;71113;43.092;-89.268;2023-08-31T11:17:55;98572.16;;;16.35
78369;BMP280;71113;43.092;-89.268;2023-08-31T11:20:23;98576.63;;;16.49
78369;BMP280;71113;43.092;-89.268;2023-08-31T11:22:54;98579.13;;;16.59
78369;BMP280;71113;43.092;-89.268;2023-08-31T11:25:20;98581.31;;;16.65
78369;BMP280;71113;43.092;-89.268;2023-08-31T11:27:57;98585.44;;;16.71
78369;BMP280;71113;43.092;-89.268;2023-08-31T11:30:31;98585.94;;;16.73
78369;BMP280;71113;43.092;-89.268;2023-08-31T11:33:06;98582.41;;;16.78
78369;BMP280;71113;43.092;-89.268;2023-08-31T11:35:35;98593.94;;;16.82
78369;BMP280;71113;43.092;-89.268;2023-08-31T11:38:02;98587.00;;;16.86
78369;BMP280;71113;43.092;-89.268;2023-08-31T11:40:29;98592.75;;;16.88
78369;BMP280;71113;43.092;-89.268;2023-08-31T11:42:56;98595.84;;;16.90
78369;BMP280;71113;43.092;-89.268;2023-08-31T11:45:23;98599.50;;;16.94
78369;BMP280;71113;43.092;-89.268;2023-08-31T11:47:51;98593.88;;;16.96
78369;BMP280;71113;43.092;-89.268;2023-08-31T11:50:18;98594.88;;;17.00
78369;BMP280;71113;43.092;-89.268;2023-08-31T11:52:44;98601.13;;;17.04
78369;BMP280;71113;43.092;-89.268;2023-08-31T11:55:15;98609.41;;;17.11
78369;BMP280;71113;43.092;-89.268;2023-08-31T11:57:52;98617.03;;;17.13
78369;BMP280;71113;43.092;-89.268;2023-08-31T12:00:21;98612.44;;;17.18
78369;BMP280;71113;43.092;-89.268;2023-08-31T12:02:57;98621.22;;;17.27
78369;BMP280;71113;43.092;-89.268;2023-08-31T12:05:23;98616.59;;;17.33
78369;BMP280;71113;43.092;-89.268;2023-08-31T12:07:49;98623.34;;;17.39
78369;BMP280;71113;43.092;-89.268;2023-08-31T12:10:16;98617.44;;;17.42
78369;BMP280;71113;43.092;-89.268;2023-08-31T12:12:42;98618.13;;;17.48
78369;BMP280;71113;43.092;-89.268;2023-08-31T12:15:08;98624.06;;;17.53
78369;BMP280;71113;43.092;-89.268;2023-08-31T12:17:39;98628.94;;;17.60
78369;BMP280;71113;43.092;-89.268;2023-08-31T12:20:06;98631.47;;;17.65
78369;BMP280;71113;43.092;-89.268;2023-08-31T12:22:32;98637.09;;;17.72
78369;BMP280;71113;43.092;-89.268;2023-08-31T12:24:58;98641.47;;;17.77
78369;BMP280;71113;43.092;-89.268;2023-08-31T12:27:24;98649.00;;;17.83
78369;BMP280;71113;43.092;-89.268;2023-08-31T12:29:51;98653.09;;;17.89
78369;BMP280;71113;43.092;-89.268;2023-08-31T12:32:17;98650.00;;;17.96
78369;BMP280;71113;43.092;-89.268;2023-08-31T12:34:46;98646.94;;;18.03
78369;BMP280;71113;43.092;-89.268;2023-08-31T12:37:12;98652.72;;;18.05
78369;BMP280;71113;43.092;-89.268;2023-08-31T12:39:39;98652.91;;;18.08
78369;BMP280;71113;43.092;-89.268;2023-08-31T12:42:07;98657.28;;;18.13
78369;BMP280;71113;43.092;-89.268;2023-08-31T12:44:33;98662.44;;;18.18
78369;BMP280;71113;43.092;-89.268;2023-08-31T12:46:59;98656.03;;;18.19
78369;BMP280;71113;43.092;-89.268;2023-08-31T12:49:25;98661.41;;;18.28
78369;BMP280;71113;43.092;-89.268;2023-08-31T12:51:51;98666.56;;;18.33
78369;BMP280;71113;43.092;-89.268;2023-08-31T12:54:17;98666.91;;;18.40
78369;BMP280;71113;43.092;-89.268;2023-08-31T12:56:43;98671.25;;;18.44
78369;BMP280;71113;43.092;-89.268;2023-08-31T12:59:09;98665.06;;;18.49
78369;BMP280;71113;43.092;-89.268;2023-08-31T13:01:35;98666.78;;;18.53
78369;BMP280;71113;43.092;-89.268;2023-08-31T13:04:01;98666.22;;;18.56
78369;BMP280;71113;43.092;-89.268;2023-08-31T13:06:28;98669.03;;;18.60
78369;BMP280;71113;43.092;-89.268;2023-08-31T13:08:54;98675.25;;;18.64
78369;BMP280;71113;43.092;-89.268;2023-08-31T13:11:20;98672.31;;;18.66
78369;BMP280;71113;43.092;-89.268;2023-08-31T13:13:49;98678.09;;;18.76
78369;BMP280;71113;43.092;-89.268;2023-08-31T13:16:19;98674.66;;;18.76
78369;BMP280;71113;43.092;-89.268;2023-08-31T13:18:45;98676.38;;;18.80
78369;BMP280;71113;43.092;-89.268;2023-08-31T13:21:11;98678.59;;;18.87
78369;BMP280;71113;43.092;-89.268;2023-08-31T13:23:36;98674.75;;;18.93
78369;BMP280;71113;43.092;-89.268;2023-08-31T13:26:02;98678.63;;;18.96
78369;BMP280;71113;43.092;-89.268;2023-08-31T13:28:29;98668.34;;;18.94
78369;BMP280;71113;43.092;-89.268;2023-08-31T13:30:57;98683.47;;;19.02
78369;BMP280;71113;43.092;-89.268;2023-08-31T13:33:26;98682.38;;;19.03
78369;BMP280;71113;43.092;-89.268;2023-08-31T13:35:56;98678.34;;;19.06
78369;BMP280;71113;43.092;-89.268;2023-08-31T13:38:22;98679.56;;;19.08
78369;BMP280;71113;43.092;-89.268;2023-08-31T13:40:48;98672.91;;;19.11
78369;BMP280;71113;43.092;-89.268;2023-08-31T13:43:19;98686.31;;;19.14
78369;BMP280;71113;43.092;-89.268;2023-08-31T13:45:45;98684.59;;;19.18
78369;BMP280;71113;43.092;-89.268;2023-08-31T13:48:11;98685.53;;;19.23
78369;BMP280;71113;43.092;-89.268;2023-08-31T13:50:37;98679.16;;;19.24
78369;BMP280;71113;43.092;-89.268;2023-08-31T13:53:12;98683.81;;;19.27
78369;BMP280;71113;43.092;-89.268;2023-08-31T13:55:38;98674.50;;;19.29
78369;BMP280;71113;43.092;-89.268;2023-08-31T13:58:05;98670.94;;;19.34
78369;BMP280;71113;43.092;-89.268;2023-08-31T14:00:37;98688.53;;;19.38
78369;BMP280;71113;43.092;-89.268;2023-08-31T14:03:04;98687.28;;;19.44
78369;BMP280;71113;43.092;-89.268;2023-08-31T14:05:30;98692.25;;;19.46
78369;BMP280;71113;43.092;-89.268;2023-08-31T14:07:57;98692.75;;;19.48
78369;BMP280;71113;43.092;-89.268;2023-08-31T14:10:31;98686.03;;;19.50